createdAt,value
2023-04-25T00:01:58.103Z,13.93
2023-04-25T00:04:25.187Z,13.89
2023-04-25T00:06:53.627Z,13.88
2023-04-25T00:09:20.713Z,13.86
2023-04-25T00:11:47.626Z,13.85
2023-04-25T00:14:14.903Z,13.83
2023-04-25T00:16:42.570Z,13.81
2023-04-25T00:19:10.856Z,13.80
2023-04-25T00:21:41.877Z,13.79
2023-04-25T00:24:09.154Z,13.76
2023-04-25T00:26:37.269Z,13.73
2023-04-25T00:29:04.434Z,13.72
2023-04-25T00:31:31.910Z,13.67
2023-04-25T00:33:58.880Z,13.68
2023-04-25T00:36:26.149Z,13.67
2023-04-25T00:38:54.678Z,13.65
2023-04-25T00:41:21.800Z,13.64
2023-04-25T00:43:50.582Z,13.61
2023-04-25T00:46:17.758Z,13.63
2023-04-25T00:48:44.741Z,13.60
2023-04-25T00:51:17.221Z,13.63
2023-04-25T00:53:44.594Z,13.61
2023-04-25T00:56:11.819Z,13.57
2023-04-25T00:58:39.695Z,13.59
2023-04-25T01:01:08.200Z,13.60
2023-04-25T01:03:42.251Z,13.56
2023-04-25T01:06:12.719Z,13.53
2023-04-25T01:08:40.744Z,13.52
2023-04-25T01:11:08.046Z,13.52
2023-04-25T01:13:36.365Z,13.54
2023-04-25T01:16:04.670Z,13.51
2023-04-25T01:18:31.722Z,13.50
2023-04-25T01:21:08.131Z,13.47
2023-04-25T01:23:35.643Z,13.44
2023-04-25T01:26:02.981Z,13.43
2023-04-25T01:28:30.147Z,13.42
2023-04-25T01:30:58.147Z,13.40
2023-04-25T01:33:25.154Z,13.39
2023-04-25T01:35:52.601Z,13.37
2023-04-25T01:38:19.730Z,13.36
2023-04-25T01:40:48.509Z,13.36
2023-04-25T01:43:15.727Z,13.39
2023-04-25T01:45:43.652Z,13.37
2023-04-25T01:48:12.644Z,13.37
2023-04-25T01:50:40.770Z,13.36
2023-04-25T01:53:07.976Z,13.35
2023-04-25T01:55:34.941Z,13.33
2023-04-25T01:58:03.996Z,13.35
2023-04-25T02:00:31.055Z,13.33
2023-04-25T02:03:01.533Z,13.34
2023-04-25T02:05:28.553Z,13.31
2023-04-25T02:07:55.581Z,13.30
2023-04-25T02:10:22.567Z,13.28
2023-04-25T02:12:49.503Z,13.26
2023-04-25T02:15:16.417Z,13.23
2023-04-25T02:17:43.376Z,13.27
2023-04-25T02:20:11.486Z,13.27
2023-04-25T02:22:38.425Z,13.27
2023-04-25T02:25:06.070Z,13.27
2023-04-25T02:27:33.056Z,13.25
2023-04-25T02:30:00.002Z,13.25
2023-04-25T02:32:27.167Z,13.26
2023-04-25T02:34:54.877Z,13.26
2023-04-25T02:37:21.788Z,13.24
2023-04-25T02:39:48.749Z,13.25
2023-04-25T02:42:15.694Z,13.25
2023-04-25T02:44:42.656Z,13.24
2023-04-25T02:47:09.641Z,13.25
2023-04-25T02:49:36.828Z,13.22
2023-04-25T02:52:03.941Z,13.25
2023-04-25T02:54:31.615Z,13.23
2023-04-25T02:56:58.649Z,13.25
2023-04-25T02:59:25.654Z,13.26
2023-04-25T03:01:52.557Z,13.22
2023-04-25T03:04:20.588Z,13.25
2023-04-25T03:06:47.989Z,13.25
2023-04-25T03:09:14.935Z,13.22
2023-04-25T03:11:42.057Z,13.23
2023-04-25T03:14:09.120Z,13.24
2023-04-25T03:16:36.210Z,13.25
2023-04-25T03:19:04.867Z,13.23
2023-04-25T03:21:36.461Z,13.25
2023-04-25T03:24:05.699Z,13.26
2023-04-25T03:26:32.719Z,13.25
2023-04-25T03:28:59.689Z,13.26
2023-04-25T03:31:26.615Z,13.25
2023-04-25T03:33:53.685Z,13.25
2023-04-25T03:36:20.715Z,13.24
2023-04-25T03:38:47.859Z,13.25
2023-04-25T03:41:14.787Z,13.25
2023-04-25T03:43:41.694Z,13.26
2023-04-25T03:46:08.688Z,13.25
2023-04-25T03:48:35.676Z,13.26
2023-04-25T03:51:02.630Z,13.25
2023-04-25T03:53:29.770Z,13.26
2023-04-25T03:55:56.838Z,13.23
2023-04-25T03:58:25.701Z,13.22
2023-04-25T04:00:52.644Z,13.24
2023-04-25T04:03:19.715Z,13.24
2023-04-25T04:05:47.812Z,13.26
2023-04-25T04:08:15.024Z,13.29
2023-04-25T04:10:41.942Z,13.30
2023-04-25T04:13:08.958Z,13.32
2023-04-25T04:15:35.998Z,13.30
2023-04-25T04:18:05.863Z,13.31
2023-04-25T04:20:32.851Z,13.30
2023-04-25T04:22:59.817Z,13.30
2023-04-25T04:25:27.555Z,13.28
2023-04-25T04:27:57.443Z,13.29
2023-04-25T04:30:30.762Z,13.30
2023-04-25T04:32:58.023Z,13.31
2023-04-25T04:35:25.343Z,13.29
2023-04-25T04:37:52.429Z,13.26
2023-04-25T04:40:19.592Z,13.29
2023-04-25T04:42:46.846Z,13.35
2023-04-25T04:45:14.272Z,13.38
2023-04-25T04:47:41.386Z,13.44
2023-04-25T04:50:10.620Z,13.44
2023-04-25T04:52:38.218Z,13.44
2023-04-25T04:55:07.150Z,13.44
2023-04-25T04:57:34.389Z,13.42
2023-04-25T05:00:01.817Z,13.45
2023-04-25T05:02:29.473Z,13.47
2023-04-25T05:11:14.567Z,13.45
2023-04-25T05:13:41.494Z,13.44
2023-04-25T05:16:08.465Z,13.44
2023-04-25T05:18:35.614Z,13.41
2023-04-25T05:21:02.685Z,13.43
2023-04-25T05:23:32.600Z,13.44
2023-04-25T05:26:01.130Z,13.44
2023-04-25T05:28:28.145Z,13.44
2023-04-25T05:30:55.153Z,13.35
2023-04-25T05:33:22.211Z,13.15
2023-04-25T05:35:49.204Z,13.09
2023-04-25T05:38:16.161Z,13.02
2023-04-25T05:40:43.223Z,13.01
2023-04-25T05:43:10.202Z,12.96
2023-04-25T05:45:37.246Z,12.94
2023-04-25T05:48:04.398Z,12.93
2023-04-25T05:50:31.572Z,12.92
2023-04-25T05:52:58.540Z,12.92
2023-04-25T05:55:26.119Z,12.93
2023-04-25T05:57:53.102Z,12.97
2023-04-25T06:00:20.467Z,12.91
2023-04-25T06:02:47.545Z,12.87
2023-04-25T06:05:14.696Z,12.87
2023-04-25T06:07:41.720Z,12.39
2023-04-25T06:10:09.497Z,12.18
2023-04-25T06:12:36.542Z,11.96
2023-04-25T06:15:08.135Z,11.78
2023-04-25T06:17:41.042Z,11.65
2023-04-25T06:20:09.600Z,11.56
2023-04-25T06:22:36.615Z,11.49
2023-04-25T06:25:05.701Z,11.49
2023-04-25T06:27:32.996Z,11.56
2023-04-25T06:30:00.092Z,11.77
2023-04-25T06:32:29.347Z,11.93
2023-04-25T06:34:56.438Z,12.01
2023-04-25T06:37:23.536Z,12.07
2023-04-25T06:39:50.698Z,12.10
2023-04-25T06:42:17.747Z,12.15
2023-04-25T06:44:44.869Z,12.19
2023-04-25T06:47:11.980Z,12.24
2023-04-25T06:49:39.060Z,12.29
2023-04-25T06:52:06.109Z,12.33
2023-04-25T06:54:33.088Z,12.41
2023-04-25T06:57:02.394Z,12.30
2023-04-25T06:59:29.367Z,12.40
2023-04-25T07:01:56.348Z,12.46
2023-04-25T07:04:23.789Z,12.49
2023-04-25T07:06:51.117Z,12.60
2023-04-25T07:09:18.447Z,12.69
2023-04-25T07:11:45.439Z,12.72
2023-04-25T07:14:12.490Z,12.72
2023-04-25T07:16:39.516Z,12.33
2023-04-25T07:19:07.054Z,12.36
2023-04-25T07:21:34.701Z,12.59
2023-04-25T07:24:01.694Z,12.68
2023-04-25T07:26:28.800Z,12.73
2023-04-25T07:28:56.121Z,12.82
2023-04-25T07:31:24.172Z,12.81
2023-04-25T07:33:52.585Z,12.87
2023-04-25T07:36:19.857Z,12.91
2023-04-25T07:38:46.921Z,13.00
2023-04-25T07:41:13.921Z,13.05
2023-04-25T07:43:41.138Z,13.11
2023-04-25T07:46:08.205Z,13.15
2023-04-25T07:48:35.329Z,13.22
2023-04-25T07:51:04.341Z,13.26
2023-04-25T07:53:31.765Z,13.32
2023-04-25T07:55:58.827Z,13.35
2023-04-25T07:58:26.052Z,13.38
2023-04-25T08:00:53.195Z,13.45
2023-04-25T08:03:20.423Z,13.52
2023-04-25T08:05:47.779Z,13.52
2023-04-25T08:08:14.877Z,13.54
2023-04-25T08:10:43.481Z,13.51
2023-04-25T08:13:10.475Z,13.55
2023-04-25T08:15:37.518Z,13.59
2023-04-25T08:18:04.689Z,13.67
2023-04-25T08:20:32.018Z,13.70
2023-04-25T08:22:59.107Z,13.73
2023-04-25T08:25:26.119Z,13.76
2023-04-25T08:27:53.172Z,13.79
2023-04-25T08:30:20.652Z,13.82
2023-04-25T08:32:47.811Z,13.87
2023-04-25T08:35:15.215Z,13.89
2023-04-25T08:37:42.813Z,13.96
2023-04-25T08:40:13.694Z,14.01
2023-04-25T08:42:43.003Z,13.98
2023-04-25T08:45:11.453Z,14.00
2023-04-25T08:47:41.173Z,14.02
2023-04-25T08:50:08.694Z,14.03
2023-04-25T08:52:46.733Z,14.05
2023-04-25T08:55:14.490Z,14.05
2023-04-25T08:57:44.985Z,14.18
2023-04-25T09:00:13.929Z,14.21
2023-04-25T09:02:41.689Z,14.19
2023-04-25T09:05:11.196Z,14.17
2023-04-25T09:07:38.869Z,14.16
2023-04-25T09:10:06.461Z,14.16
2023-04-25T09:12:33.578Z,14.16
2023-04-25T09:15:20.547Z,14.18
2023-04-25T09:17:57.117Z,14.21
2023-04-25T09:20:24.357Z,14.22
2023-04-25T09:22:51.501Z,14.26
2023-04-25T09:25:18.870Z,14.30
2023-04-25T09:27:53.545Z,14.34
2023-04-25T09:30:31.015Z,14.32
2023-04-25T09:33:01.970Z,14.36
2023-04-25T09:35:29.196Z,14.40
2023-04-25T09:37:57.114Z,14.42
2023-04-25T09:40:24.242Z,14.43
2023-04-25T09:42:51.898Z,14.42
2023-04-25T09:45:19.026Z,14.38
2023-04-25T09:47:46.150Z,14.42
2023-04-25T09:50:17.932Z,14.27
2023-04-25T09:52:45.199Z,14.11
2023-04-25T09:55:13.023Z,14.17
2023-04-25T09:57:41.276Z,14.34
2023-04-25T10:00:13.982Z,14.39
2023-04-25T10:02:44.445Z,14.50
2023-04-25T10:05:12.327Z,14.51
2023-04-25T10:07:41.156Z,14.48
2023-04-25T10:10:09.000Z,14.46
2023-04-25T10:12:36.093Z,14.43
2023-04-25T10:15:05.598Z,14.40
2023-04-25T10:17:34.271Z,14.40
2023-04-25T10:20:05.278Z,14.37
2023-04-25T10:22:38.572Z,14.36
2023-04-25T10:25:06.750Z,14.37
2023-04-25T10:27:33.962Z,14.39
2023-04-25T10:30:16.992Z,14.41
2023-04-25T10:32:44.687Z,14.40
2023-04-25T10:35:28.304Z,14.38
2023-04-25T10:38:12.189Z,14.35
2023-04-25T10:40:39.475Z,14.37
2023-04-25T10:43:36.202Z,14.39
2023-04-25T10:46:04.508Z,14.37
2023-04-25T10:48:32.683Z,14.37
2023-04-25T10:51:11.258Z,14.34
2023-04-25T10:53:38.547Z,14.36
2023-04-25T10:56:22.833Z,14.33
2023-04-25T10:58:52.173Z,14.10
2023-04-25T11:01:26.850Z,13.83
2023-04-25T11:03:59.791Z,13.92
2023-04-25T11:06:44.191Z,14.08
2023-04-25T11:09:16.234Z,14.03
2023-04-25T11:11:43.363Z,13.90
2023-04-25T11:14:10.619Z,14.03
2023-04-25T11:16:37.926Z,14.12
2023-04-25T11:19:05.638Z,14.19
2023-04-25T11:21:33.320Z,14.22
2023-04-25T11:24:01.338Z,14.23
2023-04-25T11:26:28.411Z,14.22
2023-04-25T11:29:00.847Z,14.26
2023-04-25T11:31:28.285Z,14.30
2023-04-25T11:33:56.689Z,14.31
2023-04-25T11:36:25.616Z,14.32
2023-04-25T11:38:53.416Z,14.33
2023-04-25T11:41:21.691Z,14.33
2023-04-25T11:43:51.579Z,14.34
2023-04-25T11:46:22.004Z,14.36
2023-04-25T11:48:49.549Z,14.36
2023-04-25T11:51:16.886Z,14.38
2023-04-25T11:53:46.180Z,14.40
2023-04-25T11:56:13.869Z,14.40
2023-04-25T11:59:02.080Z,14.42
2023-04-25T12:01:36.825Z,14.43
2023-04-25T12:04:17.882Z,14.44
2023-04-25T12:06:48.882Z,14.40
2023-04-25T12:09:19.441Z,14.43
2023-04-25T12:11:48.676Z,14.43
2023-04-25T12:14:26.050Z,14.47
2023-04-25T12:16:53.200Z,14.52
2023-04-25T12:19:21.825Z,14.57
2023-04-25T12:21:58.053Z,14.58
2023-04-25T12:24:29.045Z,14.51
2023-04-25T12:27:07.479Z,14.54
2023-04-25T12:29:48.685Z,14.53
2023-04-25T12:32:17.402Z,14.59
2023-04-25T12:34:44.834Z,14.61
2023-04-25T12:37:12.853Z,14.60
2023-04-25T12:39:40.668Z,14.62
2023-04-25T12:42:10.019Z,14.67
2023-04-25T12:44:37.117Z,14.69
2023-04-25T12:47:04.784Z,14.67
2023-04-25T12:49:32.017Z,14.68
2023-04-25T12:51:59.341Z,14.68
2023-04-25T12:54:27.263Z,14.77
2023-04-25T12:56:54.416Z,14.82
2023-04-25T12:59:22.548Z,14.87
2023-04-25T13:01:49.814Z,14.93
2023-04-25T13:04:17.520Z,15.02
2023-04-25T13:06:44.968Z,15.10
2023-04-25T13:09:13.802Z,15.18
2023-04-25T13:11:42.205Z,15.25
2023-04-25T13:14:09.711Z,15.30
2023-04-25T13:16:37.732Z,15.36
2023-04-25T13:19:05.027Z,15.41
2023-04-25T13:21:33.880Z,15.47
2023-04-25T13:24:01.103Z,15.51
2023-04-25T13:26:28.403Z,15.58
2023-04-25T13:28:55.587Z,15.63
2023-04-25T13:31:22.828Z,15.70
2023-04-25T13:33:50.690Z,15.73
2023-04-25T13:36:18.002Z,15.79
2023-04-25T13:38:46.472Z,15.79
2023-04-25T13:41:18.987Z,15.91
2023-04-25T13:43:49.353Z,15.83
2023-04-25T13:46:35.446Z,15.83
2023-04-25T13:49:12.222Z,15.82
2023-04-25T13:51:40.194Z,15.83
2023-04-25T13:54:07.427Z,15.90
2023-04-25T13:56:34.716Z,15.94
2023-04-25T13:59:01.843Z,15.94
2023-04-25T14:01:29.672Z,15.97
2023-04-25T14:03:56.817Z,16.01
2023-04-25T14:06:25.390Z,15.86
2023-04-25T14:08:52.591Z,15.92
2023-04-25T14:11:19.739Z,15.98
2023-04-25T14:13:47.404Z,16.00
2023-04-25T14:16:14.607Z,16.06
2023-04-25T14:18:41.900Z,16.14
2023-04-25T14:21:09.322Z,16.15
2023-04-25T14:23:36.340Z,16.19
2023-04-25T14:26:03.546Z,16.22
2023-04-25T14:28:30.745Z,16.23
2023-04-25T14:30:57.958Z,16.30
2023-04-25T14:33:25.095Z,16.30
2023-04-25T14:35:52.236Z,16.32
2023-04-25T14:38:24.459Z,16.39
2023-04-25T14:40:51.943Z,16.43
2023-04-25T14:43:19.435Z,16.42
2023-04-25T14:45:46.808Z,16.42
2023-04-25T14:48:14.128Z,16.42
2023-04-25T14:50:41.272Z,16.44
2023-04-25T14:53:08.551Z,16.45
2023-04-25T14:55:35.621Z,16.44
2023-04-25T14:58:02.565Z,16.45
2023-04-25T15:00:29.851Z,16.45
2023-04-25T15:02:57.428Z,16.45
2023-04-25T15:05:24.808Z,16.41
2023-04-25T15:07:52.096Z,16.36
2023-04-25T15:10:19.969Z,16.14
2023-04-25T15:12:48.025Z,16.19
2023-04-25T15:15:22.547Z,16.17
2023-04-25T15:17:52.845Z,16.16
2023-04-25T15:20:20.049Z,16.16
2023-04-25T15:22:47.373Z,16.19
2023-04-25T15:25:14.348Z,16.21
2023-04-25T15:27:44.934Z,16.22
2023-04-25T15:30:15.067Z,16.21
2023-04-25T15:32:46.191Z,16.24
2023-04-25T15:35:14.069Z,16.28
2023-04-25T15:37:41.914Z,16.26
2023-04-25T15:40:27.325Z,16.26
2023-04-25T15:42:54.447Z,16.25
2023-04-25T15:45:26.500Z,16.28
2023-04-25T15:47:57.572Z,16.26
2023-04-25T15:50:25.299Z,16.26
2023-04-25T15:52:52.655Z,16.24
2023-04-25T15:55:26.985Z,16.27
2023-04-25T15:57:54.210Z,16.27
2023-04-25T16:00:22.797Z,16.32
2023-04-25T16:02:53.152Z,16.34
2023-04-25T16:05:20.860Z,16.30
2023-04-25T16:07:48.418Z,16.35
2023-04-25T16:10:20.681Z,16.32
2023-04-25T16:12:49.911Z,16.34
2023-04-25T16:15:17.912Z,16.36
2023-04-25T16:17:45.114Z,16.36
2023-04-25T16:20:13.810Z,16.35
2023-04-25T16:22:42.454Z,16.35
2023-04-25T16:25:10.206Z,16.36
2023-04-25T16:27:40.741Z,16.35
2023-04-25T16:30:10.375Z,16.36
2023-04-25T16:32:38.612Z,16.32
2023-04-25T16:35:06.195Z,16.36
2023-04-25T16:37:33.344Z,16.37
2023-04-25T16:40:00.412Z,16.34
2023-04-25T16:42:27.358Z,16.27
2023-04-25T16:44:54.354Z,16.20
2023-04-25T16:47:21.525Z,16.21
2023-04-25T16:49:48.824Z,16.15
2023-04-25T16:52:16.854Z,16.03
2023-04-25T16:54:44.019Z,16.06
2023-04-25T16:57:11.766Z,15.98
2023-04-25T16:59:39.637Z,16.05
2023-04-25T17:02:10.522Z,16.05
2023-04-25T17:04:37.987Z,16.04
2023-04-25T17:07:05.145Z,16.05
2023-04-25T17:09:33.264Z,16.10
2023-04-25T17:12:00.653Z,16.11
2023-04-25T17:14:27.716Z,16.10
2023-04-25T17:16:55.065Z,16.16
2023-04-25T17:19:22.654Z,16.19
2023-04-25T17:21:49.865Z,16.16
2023-04-25T17:24:18.512Z,16.15
2023-04-25T17:26:46.255Z,16.24
2023-04-25T17:29:15.875Z,16.28
2023-04-25T17:31:43.128Z,16.32
2023-04-25T17:34:10.529Z,16.32
2023-04-25T17:36:37.732Z,16.30
2023-04-25T17:39:06.800Z,16.30
2023-04-25T17:41:33.975Z,16.32
2023-04-25T17:44:01.108Z,16.35
2023-04-25T17:46:29.899Z,16.35
2023-04-25T17:48:58.594Z,16.37
2023-04-25T17:51:25.872Z,16.34
2023-04-25T17:53:52.901Z,16.34
2023-04-25T17:58:53.452Z,16.32
2023-04-25T18:01:21.104Z,16.30
2023-04-25T18:03:50.647Z,16.42
2023-04-25T18:06:18.537Z,16.43
2023-04-25T18:08:46.450Z,16.41
2023-04-25T18:11:15.893Z,16.41
2023-04-25T18:13:43.584Z,16.40
2023-04-25T18:16:11.109Z,16.43
2023-04-25T18:18:38.504Z,16.42
2023-04-25T18:21:08.178Z,16.42
2023-04-25T18:23:37.214Z,16.44
2023-04-25T18:26:05.482Z,16.45
2023-04-25T18:28:35.110Z,16.43
2023-04-25T18:31:03.052Z,16.41
2023-04-25T18:33:32.414Z,16.38
2023-04-25T18:35:59.937Z,16.35
2023-04-25T18:41:10.668Z,16.32
2023-04-25T18:43:45.343Z,16.31
2023-04-25T18:46:12.780Z,16.33
2023-04-25T18:48:39.996Z,16.30
2023-04-25T18:51:07.468Z,16.32
2023-04-25T18:53:34.798Z,16.38
2023-04-25T18:56:02.257Z,16.38
2023-04-25T18:58:29.614Z,16.38
2023-04-25T19:00:57.252Z,16.41
2023-04-25T19:03:24.556Z,16.42
2023-04-25T19:05:52.391Z,16.44
2023-04-25T19:08:20.604Z,16.47
2023-04-25T19:10:47.913Z,16.50
2023-04-25T19:13:15.495Z,16.48
2023-04-25T19:15:42.726Z,16.53
2023-04-25T19:18:10.599Z,16.58
2023-04-25T19:20:38.467Z,16.61
2023-04-25T19:23:06.032Z,16.66
2023-04-25T19:25:35.179Z,16.73
2023-04-25T19:28:02.924Z,16.75
2023-04-25T19:30:30.654Z,16.79
2023-04-25T19:33:01.864Z,16.80
2023-04-25T19:35:31.345Z,16.81
2023-04-25T19:37:59.320Z,16.87
2023-04-25T19:40:29.770Z,16.95
2023-04-25T19:42:57.705Z,16.90
2023-04-25T19:45:25.170Z,16.88
2023-04-25T19:47:54.554Z,16.87
2023-04-25T19:50:23.654Z,16.86
2023-04-25T19:52:53.962Z,16.89
2023-04-25T19:55:24.886Z,16.90
2023-04-25T19:57:52.857Z,16.92
2023-04-25T20:00:21.766Z,16.95
2023-04-25T20:02:49.457Z,16.96
2023-04-25T20:05:18.258Z,16.96
2023-04-25T20:07:45.679Z,16.97
2023-04-25T20:10:17.037Z,16.98
2023-04-25T20:12:45.097Z,16.98
2023-04-25T20:15:13.628Z,16.95
2023-04-25T20:17:42.407Z,16.98
2023-04-25T20:20:13.195Z,16.96
2023-04-25T20:22:40.995Z,16.96
2023-04-25T20:25:09.756Z,16.91
2023-04-25T20:27:40.593Z,16.93
2023-04-25T20:30:09.305Z,16.93
2023-04-25T20:32:38.323Z,16.89
2023-04-25T20:35:09.334Z,16.95
2023-04-25T20:37:37.120Z,16.90
2023-04-25T20:40:08.067Z,16.91
2023-04-25T20:42:36.733Z,16.88
2023-04-25T20:45:08.048Z,16.90
2023-04-25T20:47:35.844Z,16.89
2023-04-25T20:50:06.500Z,16.88
2023-04-25T20:52:35.414Z,16.86
2023-04-25T20:55:02.668Z,16.89
2023-04-25T20:57:30.371Z,16.88
2023-04-25T20:59:58.097Z,16.84
2023-04-25T21:02:25.530Z,16.81
2023-04-25T21:04:52.735Z,16.80
2023-04-25T21:07:21.439Z,16.77
2023-04-25T21:09:48.843Z,16.77
2023-04-25T21:12:16.231Z,16.76
2023-04-25T21:14:43.711Z,16.70
2023-04-25T21:17:10.968Z,16.70
2023-04-25T21:19:37.980Z,16.69
2023-04-25T21:22:05.083Z,16.68
2023-04-25T21:24:33.555Z,16.69
2023-04-25T21:27:01.542Z,16.53
2023-04-25T21:29:28.936Z,16.53
2023-04-25T21:31:57.182Z,16.44
2023-04-25T21:34:24.678Z,16.40
2023-04-25T21:36:51.734Z,16.31
2023-04-25T21:39:19.654Z,16.25
2023-04-25T21:41:47.124Z,16.19
2023-04-25T21:44:16.062Z,16.17
2023-04-25T21:46:46.499Z,16.13
2023-04-25T21:49:13.828Z,16.11
2023-04-25T21:51:41.007Z,16.06
2023-04-25T21:54:08.533Z,16.02
2023-04-25T21:56:35.597Z,15.98
2023-04-25T21:59:02.773Z,15.94
2023-04-25T22:01:29.873Z,15.90
2023-04-25T22:03:57.232Z,15.89
2023-04-25T22:06:24.792Z,15.84
2023-04-25T22:08:52.298Z,15.80
2023-04-25T22:11:19.577Z,15.77
2023-04-25T22:13:47.553Z,15.77
2023-04-25T22:16:14.997Z,15.75
2023-04-25T22:18:46.927Z,15.71
2023-04-25T22:21:13.975Z,15.70
2023-04-25T22:23:41.046Z,15.68
2023-04-25T22:26:08.242Z,15.64
2023-04-25T22:28:35.869Z,15.65
2023-04-25T22:31:03.237Z,15.62
2023-04-25T22:33:30.349Z,15.59
2023-04-25T22:35:57.453Z,15.55
2023-04-25T22:38:24.470Z,15.58
2023-04-25T22:40:52.526Z,15.55
2023-04-25T22:43:20.176Z,15.54
2023-04-25T22:45:47.866Z,15.53
2023-04-25T22:48:14.839Z,15.53
2023-04-25T22:50:41.967Z,15.53
2023-04-25T22:53:10.572Z,15.53
2023-04-25T22:55:37.668Z,15.53
2023-04-25T22:58:05.209Z,15.49
2023-04-25T23:00:34.648Z,15.45
2023-04-25T23:03:04.503Z,15.41
2023-04-25T23:05:33.164Z,15.40
2023-04-25T23:08:00.554Z,15.39
2023-04-25T23:10:28.950Z,15.36
2023-04-25T23:12:58.509Z,15.33
2023-04-25T23:15:31.185Z,15.29
2023-04-25T23:17:58.960Z,15.28
2023-04-25T23:20:26.155Z,15.25
2023-04-25T23:22:53.409Z,15.23
2023-04-25T23:25:21.792Z,15.22
2023-04-25T23:27:48.842Z,15.17
2023-04-25T23:30:16.221Z,15.17
2023-04-25T23:32:43.250Z,15.15
2023-04-25T23:35:10.958Z,15.15
2023-04-25T23:37:46.140Z,15.13
2023-04-25T23:40:13.260Z,15.11
2023-04-25T23:42:41.481Z,15.08
2023-04-25T23:45:09.423Z,15.11
2023-04-25T23:47:36.764Z,15.08
2023-04-25T23:50:04.269Z,15.07
2023-04-25T23:52:31.337Z,15.07
2023-04-25T23:54:58.341Z,15.05
2023-04-25T23:57:25.401Z,15.03
2023-04-25T23:59:52.499Z,15.00
